sensor_id;sensor_type;location;lat;lon;timestamp;P1;durP1;ratioP1;P2;durP2;ratioP2
22268;SDS011;11303;50.772;19.670;2022-10-17T00:00:38;42.95;;;26.48;;
22268;SDS011;11303;50.772;19.670;2022-10-17T00:02:39;49.65;;;28.60;;
22268;SDS011;11303;50.772;19.670;2022-10-17T00:04:41;43.55;;;27.95;;
22268;SDS011;11303;50.772;19.670;2022-10-17T00:06:43;41.92;;;26.85;;
22268;SDS011;11303;50.772;19.670;2022-10-17T00:08:44;39.80;;;24.17;;
22268;SDS011;11303;50.772;19.670;2022-10-17T00:10:57;41.78;;;26.60;;
22268;SDS011;11303;50.772;19.670;2022-10-17T00:12:59;42.42;;;27.50;;
22268;SDS011;11303;50.772;19.670;2022-10-17T00:15:03;43.40;;;24.92;;
22268;SDS011;11303;50.772;19.670;2022-10-17T00:17:05;46.08;;;25.98;;
22268;SDS011;11303;50.772;19.670;2022-10-17T00:19:07;43.58;;;27.33;;
22268;SDS011;11303;50.772;19.670;2022-10-17T00:21:15;41.28;;;26.30;;
22268;SDS011;11303;50.772;19.670;2022-10-17T00:23:18;53.47;;;31.35;;
22268;SDS011;11303;50.772;19.670;2022-10-17T00:25:19;50.03;;;30.52;;
22268;SDS011;11303;50.772;19.670;2022-10-17T00:27:21;46.08;;;30.40;;
22268;SDS011;11303;50.772;19.670;2022-10-17T00:29:22;48.15;;;30.20;;
22268;SDS011;11303;50.772;19.670;2022-10-17T00:31:24;48.38;;;29.63;;
22268;SDS011;11303;50.772;19.670;2022-10-17T00:33:26;49.80;;;30.45;;
22268;SDS011;11303;50.772;19.670;2022-10-17T00:35:28;42.92;;;29.63;;
22268;SDS011;11303;50.772;19.670;2022-10-17T00:37:30;47.20;;;29.30;;
22268;SDS011;11303;50.772;19.670;2022-10-17T00:39:32;42.70;;;27.13;;
22268;SDS011;11303;50.772;19.670;2022-10-17T00:41:34;47.35;;;29.40;;
22268;SDS011;11303;50.772;19.670;2022-10-17T00:45:52;44.97;;;28.40;;
22268;SDS011;11303;50.772;19.670;2022-10-17T00:47:55;45.47;;;28.70;;
22268;SDS011;11303;50.772;19.670;2022-10-17T00:49:59;43.03;;;28.70;;
22268;SDS011;11303;50.772;19.670;2022-10-17T00:52:07;40.38;;;27.60;;
22268;SDS011;11303;50.772;19.670;2022-10-17T00:54:12;41.28;;;27.85;;
22268;SDS011;11303;50.772;19.670;2022-10-17T00:56:17;44.45;;;27.58;;
22268;SDS011;11303;50.772;19.670;2022-10-17T00:58:21;42.28;;;26.83;;
22268;SDS011;11303;50.772;19.670;2022-10-17T01:00:22;44.40;;;26.98;;
22268;SDS011;11303;50.772;19.670;2022-10-17T01:02:24;46.58;;;28.20;;
22268;SDS011;11303;50.772;19.670;2022-10-17T01:04:26;41.80;;;28.35;;
22268;SDS011;11303;50.772;19.670;2022-10-17T01:06:28;44.30;;;27.40;;
22268;SDS011;11303;50.772;19.670;2022-10-17T01:08:29;45.03;;;29.52;;
22268;SDS011;11303;50.772;19.670;2022-10-17T01:10:53;44.15;;;29.55;;
22268;SDS011;11303;50.772;19.670;2022-10-17T01:13:11;47.80;;;30.85;;
22268;SDS011;11303;50.772;19.670;2022-10-17T01:15:38;45.28;;;27.60;;
22268;SDS011;11303;50.772;19.670;2022-10-17T01:22:43;47.05;;;29.98;;
22268;SDS011;11303;50.772;19.670;2022-10-17T01:25:06;53.47;;;31.73;;
22268;SDS011;11303;50.772;19.670;2022-10-17T01:32:15;49.25;;;29.90;;
22268;SDS011;11303;50.772;19.670;2022-10-17T01:34:34;49.25;;;31.00;;
22268;SDS011;11303;50.772;19.670;2022-10-17T01:36:53;56.50;;;35.65;;
22268;SDS011;11303;50.772;19.670;2022-10-17T01:39:23;48.38;;;31.25;;
22268;SDS011;11303;50.772;19.670;2022-10-17T01:41:37;51.67;;;31.73;;
22268;SDS011;11303;50.772;19.670;2022-10-17T01:43:50;48.97;;;30.58;;
22268;SDS011;11303;50.772;19.670;2022-10-17T01:46:04;51.70;;;31.48;;
22268;SDS011;11303;50.772;19.670;2022-10-17T01:48:33;51.50;;;31.02;;
22268;SDS011;11303;50.772;19.670;2022-10-17T01:50:39;53.28;;;33.47;;
22268;SDS011;11303;50.772;19.670;2022-10-17T01:52:56;57.88;;;35.35;;
22268;SDS011;11303;50.772;19.670;2022-10-17T01:55:07;55.20;;;34.65;;
22268;SDS011;11303;50.772;19.670;2022-10-17T01:57:23;56.03;;;34.10;;
22268;SDS011;11303;50.772;19.670;2022-10-17T01:59:33;47.03;;;32.42;;
22268;SDS011;11303;50.772;19.670;2022-10-17T02:03:42;56.92;;;33.42;;
22268;SDS011;11303;50.772;19.670;2022-10-17T02:05:46;58.88;;;34.63;;
22268;SDS011;11303;50.772;19.670;2022-10-17T02:07:48;56.78;;;36.33;;
22268;SDS011;11303;50.772;19.670;2022-10-17T02:09:49;53.97;;;34.08;;
22268;SDS011;11303;50.772;19.670;2022-10-17T02:17:03;52.22;;;34.05;;
22268;SDS011;11303;50.772;19.670;2022-10-17T02:24:18;58.63;;;35.60;;
22268;SDS011;11303;50.772;19.670;2022-10-17T02:26:29;55.03;;;35.28;;
22268;SDS011;11303;50.772;19.670;2022-10-17T02:29:19;63.38;;;37.40;;
22268;SDS011;11303;50.772;19.670;2022-10-17T02:35:21;59.40;;;36.30;;
22268;SDS011;11303;50.772;19.670;2022-10-17T02:37:27;49.00;;;32.53;;
22268;SDS011;11303;50.772;19.670;2022-10-17T02:39:31;57.95;;;33.97;;
22268;SDS011;11303;50.772;19.670;2022-10-17T02:41:35;56.88;;;35.65;;
22268;SDS011;11303;50.772;19.670;2022-10-17T02:43:38;57.20;;;35.78;;
22268;SDS011;11303;50.772;19.670;2022-10-17T02:45:40;52.53;;;33.70;;
22268;SDS011;11303;50.772;19.670;2022-10-17T02:47:49;49.78;;;32.85;;
22268;SDS011;11303;50.772;19.670;2022-10-17T02:49:56;60.53;;;35.40;;
22268;SDS011;11303;50.772;19.670;2022-10-17T02:54:27;61.22;;;35.08;;
22268;SDS011;11303;50.772;19.670;2022-10-17T02:56:36;58.40;;;34.33;;
22268;SDS011;11303;50.772;19.670;2022-10-17T02:58:44;53.45;;;33.53;;
22268;SDS011;11303;50.772;19.670;2022-10-17T03:00:50;52.53;;;33.00;;
22268;SDS011;11303;50.772;19.670;2022-10-17T03:02:53;53.08;;;33.22;;
22268;SDS011;11303;50.772;19.670;2022-10-17T03:04:54;46.50;;;30.80;;
22268;SDS011;11303;50.772;19.670;2022-10-17T03:06:56;45.67;;;30.23;;
22268;SDS011;11303;50.772;19.670;2022-10-17T03:08:58;49.42;;;31.20;;
22268;SDS011;11303;50.772;19.670;2022-10-17T03:11:00;46.03;;;33.55;;
22268;SDS011;11303;50.772;19.670;2022-10-17T03:13:01;56.70;;;39.22;;
22268;SDS011;11303;50.772;19.670;2022-10-17T03:15:03;61.53;;;45.35;;
22268;SDS011;11303;50.772;19.670;2022-10-17T03:17:05;47.88;;;34.05;;
22268;SDS011;11303;50.772;19.670;2022-10-17T03:19:06;58.05;;;45.45;;
22268;SDS011;11303;50.772;19.670;2022-10-17T03:21:08;54.13;;;41.22;;
22268;SDS011;11303;50.772;19.670;2022-10-17T03:23:10;56.08;;;38.28;;
22268;SDS011;11303;50.772;19.670;2022-10-17T03:25:11;46.97;;;34.10;;
22268;SDS011;11303;50.772;19.670;2022-10-17T03:27:13;44.63;;;29.20;;
22268;SDS011;11303;50.772;19.670;2022-10-17T03:29:14;42.47;;;27.70;;
22268;SDS011;11303;50.772;19.670;2022-10-17T03:31:16;44.42;;;28.98;;
22268;SDS011;11303;50.772;19.670;2022-10-17T03:33:18;41.97;;;27.48;;
22268;SDS011;11303;50.772;19.670;2022-10-17T03:35:19;41.90;;;26.65;;
22268;SDS011;11303;50.772;19.670;2022-10-17T03:37:21;48.47;;;31.20;;
22268;SDS011;11303;50.772;19.670;2022-10-17T03:39:22;41.15;;;27.90;;
22268;SDS011;11303;50.772;19.670;2022-10-17T03:41:24;41.35;;;25.77;;
22268;SDS011;11303;50.772;19.670;2022-10-17T03:43:25;42.50;;;26.02;;
22268;SDS011;11303;50.772;19.670;2022-10-17T03:45:27;40.75;;;24.58;;
22268;SDS011;11303;50.772;19.670;2022-10-17T03:47:28;43.45;;;25.48;;
22268;SDS011;11303;50.772;19.670;2022-10-17T03:49:31;49.10;;;29.42;;
22268;SDS011;11303;50.772;19.670;2022-10-17T03:51:32;43.67;;;28.67;;
22268;SDS011;11303;50.772;19.670;2022-10-17T03:53:35;48.25;;;29.95;;
22268;SDS011;11303;50.772;19.670;2022-10-17T03:55:36;47.10;;;27.50;;
22268;SDS011;11303;50.772;19.670;2022-10-17T03:57:38;42.53;;;26.63;;
22268;SDS011;11303;50.772;19.670;2022-10-17T03:59:44;46.40;;;28.20;;
22268;SDS011;11303;50.772;19.670;2022-10-17T04:01:46;35.70;;;24.60;;
22268;SDS011;11303;50.772;19.670;2022-10-17T04:03:51;40.42;;;25.98;;
22268;SDS011;11303;50.772;19.670;2022-10-17T04:05:57;39.70;;;25.58;;
22268;SDS011;11303;50.772;19.670;2022-10-17T04:08:00;42.90;;;26.80;;
22268;SDS011;11303;50.772;19.670;2022-10-17T04:10:05;41.50;;;27.02;;
22268;SDS011;11303;50.772;19.670;2022-10-17T04:12:07;38.90;;;27.30;;
22268;SDS011;11303;50.772;19.670;2022-10-17T04:14:08;38.92;;;27.17;;
22268;SDS011;11303;50.772;19.670;2022-10-17T04:16:13;44.05;;;30.15;;
22268;SDS011;11303;50.772;19.670;2022-10-17T04:18:16;50.95;;;29.17;;
22268;SDS011;11303;50.772;19.670;2022-10-17T04:20:17;43.65;;;26.88;;
22268;SDS011;11303;50.772;19.670;2022-10-17T04:22:19;45.75;;;27.88;;
22268;SDS011;11303;50.772;19.670;2022-10-17T04:24:21;39.30;;;27.35;;
22268;SDS011;11303;50.772;19.670;2022-10-17T04:26:22;43.40;;;26.42;;
22268;SDS011;11303;50.772;19.670;2022-10-17T04:28:24;46.78;;;28.13;;
22268;SDS011;11303;50.772;19.670;2022-10-17T04:30:27;46.25;;;27.58;;
22268;SDS011;11303;50.772;19.670;2022-10-17T04:32:29;39.53;;;27.65;;
22268;SDS011;11303;50.772;19.670;2022-10-17T04:34:31;49.53;;;30.25;;
22268;SDS011;11303;50.772;19.670;2022-10-17T04:36:32;43.53;;;28.52;;
22268;SDS011;11303;50.772;19.670;2022-10-17T04:38:34;45.28;;;27.30;;
22268;SDS011;11303;50.772;19.670;2022-10-17T04:40:35;45.80;;;28.95;;
22268;SDS011;11303;50.772;19.670;2022-10-17T04:42:37;45.38;;;28.75;;
22268;SDS011;11303;50.772;19.670;2022-10-17T04:44:38;50.45;;;29.30;;
22268;SDS011;11303;50.772;19.670;2022-10-17T04:46:41;42.67;;;26.45;;
22268;SDS011;11303;50.772;19.670;2022-10-17T04:48:42;41.00;;;27.05;;
22268;SDS011;11303;50.772;19.670;2022-10-17T04:53:16;40.33;;;27.08;;
22268;SDS011;11303;50.772;19.670;2022-10-17T04:55:18;43.88;;;26.48;;
22268;SDS011;11303;50.772;19.670;2022-10-17T04:57:19;45.58;;;26.95;;
22268;SDS011;11303;50.772;19.670;2022-10-17T04:59:21;46.17;;;27.23;;
22268;SDS011;11303;50.772;19.670;2022-10-17T05:01:22;45.17;;;26.73;;
22268;SDS011;11303;50.772;19.670;2022-10-17T05:03:24;56.50;;;26.73;;
22268;SDS011;11303;50.772;19.670;2022-10-17T05:05:26;50.00;;;29.85;;
22268;SDS011;11303;50.772;19.670;2022-10-17T05:07:27;49.17;;;29.05;;
22268;SDS011;11303;50.772;19.670;2022-10-17T05:09:29;47.38;;;29.45;;
22268;SDS011;11303;50.772;19.670;2022-10-17T05:11:30;47.28;;;29.10;;
22268;SDS011;11303;50.772;19.670;2022-10-17T05:13:32;51.13;;;30.65;;
22268;SDS011;11303;50.772;19.670;2022-10-17T05:15:34;85.97;;;53.70;;
22268;SDS011;11303;50.772;19.670;2022-10-17T05:17:36;59.22;;;39.22;;
22268;SDS011;11303;50.772;19.670;2022-10-17T05:19:37;83.65;;;54.92;;
22268;SDS011;11303;50.772;19.670;2022-10-17T05:21:39;67.43;;;39.72;;
22268;SDS011;11303;50.772;19.670;2022-10-17T05:23:41;54.00;;;34.22;;
22268;SDS011;11303;50.772;19.670;2022-10-17T05:25:43;80.95;;;51.28;;
22268;SDS011;11303;50.772;19.670;2022-10-17T05:27:44;52.72;;;31.70;;
22268;SDS011;11303;50.772;19.670;2022-10-17T05:29:46;49.15;;;30.45;;
22268;SDS011;11303;50.772;19.670;2022-10-17T05:31:48;75.00;;;56.80;;
22268;SDS011;11303;50.772;19.670;2022-10-17T05:33:49;48.67;;;29.95;;
22268;SDS011;11303;50.772;19.670;2022-10-17T05:35:51;52.15;;;31.52;;
22268;SDS011;11303;50.772;19.670;2022-10-17T05:37:52;47.15;;;29.48;;
22268;SDS011;11303;50.772;19.670;2022-10-17T05:39:54;61.00;;;36.20;;
22268;SDS011;11303;50.772;19.670;2022-10-17T05:41:55;83.35;;;50.17;;
22268;SDS011;11303;50.772;19.670;2022-10-17T05:43:57;83.68;;;54.97;;
22268;SDS011;11303;50.772;19.670;2022-10-17T05:46:05;60.33;;;39.85;;
22268;SDS011;11303;50.772;19.670;2022-10-17T05:48:07;78.22;;;58.08;;
22268;SDS011;11303;50.772;19.670;2022-10-17T05:50:09;72.95;;;53.25;;
22268;SDS011;11303;50.772;19.670;2022-10-17T05:52:11;72.68;;;48.20;;
22268;SDS011;11303;50.772;19.670;2022-10-17T05:54:12;51.35;;;39.28;;
22268;SDS011;11303;50.772;19.670;2022-10-17T05:56:14;47.38;;;34.25;;
22268;SDS011;11303;50.772;19.670;2022-10-17T05:58:15;40.47;;;27.33;;
22268;SDS011;11303;50.772;19.670;2022-10-17T06:00:22;39.90;;;27.80;;
22268;SDS011;11303;50.772;19.670;2022-10-17T06:02:24;44.00;;;28.30;;
22268;SDS011;11303;50.772;19.670;2022-10-17T06:04:26;42.63;;;25.40;;
22268;SDS011;11303;50.772;19.670;2022-10-17T06:06:29;32.40;;;19.85;;
22268;SDS011;11303;50.772;19.670;2022-10-17T06:08:30;38.25;;;23.50;;
22268;SDS011;11303;50.772;19.670;2022-10-17T06:10:32;40.20;;;24.60;;
22268;SDS011;11303;50.772;19.670;2022-10-17T06:12:33;59.90;;;30.48;;
22268;SDS011;11303;50.772;19.670;2022-10-17T06:14:35;49.88;;;23.73;;
22268;SDS011;11303;50.772;19.670;2022-10-17T06:16:36;37.22;;;22.50;;
22268;SDS011;11303;50.772;19.670;2022-10-17T06:18:38;40.60;;;24.00;;
22268;SDS011;11303;50.772;19.670;2022-10-17T06:20:39;32.08;;;20.70;;
22268;SDS011;11303;50.772;19.670;2022-10-17T06:22:46;38.28;;;21.20;;
22268;SDS011;11303;50.772;19.670;2022-10-17T06:24:47;32.65;;;23.42;;
22268;SDS011;11303;50.772;19.670;2022-10-17T06:26:49;34.67;;;23.40;;
22268;SDS011;11303;50.772;19.670;2022-10-17T06:28:52;32.53;;;21.65;;
22268;SDS011;11303;50.772;19.670;2022-10-17T06:30:54;38.10;;;23.42;;
22268;SDS011;11303;50.772;19.670;2022-10-17T06:32:56;34.50;;;24.27;;
22268;SDS011;11303;50.772;19.670;2022-10-17T06:34:57;38.65;;;24.25;;
22268;SDS011;11303;50.772;19.670;2022-10-17T06:36:59;49.97;;;27.02;;
22268;SDS011;11303;50.772;19.670;2022-10-17T06:39:00;43.75;;;26.85;;
22268;SDS011;11303;50.772;19.670;2022-10-17T06:41:03;39.97;;;27.13;;
22268;SDS011;11303;50.772;19.670;2022-10-17T06:43:08;34.05;;;23.13;;
22268;SDS011;11303;50.772;19.670;2022-10-17T06:45:10;33.25;;;23.30;;
22268;SDS011;11303;50.772;19.670;2022-10-17T06:47:11;28.10;;;19.52;;
22268;SDS011;11303;50.772;19.670;2022-10-17T06:49:19;31.65;;;21.02;;
22268;SDS011;11303;50.772;19.670;2022-10-17T06:51:20;33.63;;;22.75;;
22268;SDS011;11303;50.772;19.670;2022-10-17T06:53:22;32.05;;;21.25;;
22268;SDS011;11303;50.772;19.670;2022-10-17T06:55:25;26.90;;;18.65;;
22268;SDS011;11303;50.772;19.670;2022-10-17T06:57:26;33.78;;;19.35;;
22268;SDS011;11303;50.772;19.670;2022-10-17T06:59:28;29.98;;;19.73;;
22268;SDS011;11303;50.772;19.670;2022-10-17T07:01:30;28.15;;;18.98;;
22268;SDS011;11303;50.772;19.670;2022-10-17T07:03:32;26.40;;;17.77;;
22268;SDS011;11303;50.772;19.670;2022-10-17T07:05:34;28.13;;;17.20;;
22268;SDS011;11303;50.772;19.670;2022-10-17T07:07:35;24.85;;;17.27;;
22268;SDS011;11303;50.772;19.670;2022-10-17T07:09:43;23.80;;;16.67;;
22268;SDS011;11303;50.772;19.670;2022-10-17T07:11:44;26.10;;;17.15;;
22268;SDS011;11303;50.772;19.670;2022-10-17T07:13:46;24.02;;;16.48;;
22268;SDS011;11303;50.772;19.670;2022-10-17T07:15:48;24.38;;;16.70;;
22268;SDS011;11303;50.772;19.670;2022-10-17T07:17:49;24.38;;;15.43;;
22268;SDS011;11303;50.772;19.670;2022-10-17T07:19:51;21.45;;;15.60;;
22268;SDS011;11303;50.772;19.670;2022-10-17T07:21:53;20.45;;;15.43;;
22268;SDS011;11303;50.772;19.670;2022-10-17T07:23:54;25.00;;;15.38;;
22268;SDS011;11303;50.772;19.670;2022-10-17T07:25:59;21.17;;;15.57;;
22268;SDS011;11303;50.772;19.670;2022-10-17T07:28:02;24.95;;;15.63;;
22268;SDS011;11303;50.772;19.670;2022-10-17T07:30:04;24.00;;;14.95;;
22268;SDS011;11303;50.772;19.670;2022-10-17T07:32:06;23.30;;;15.00;;
22268;SDS011;11303;50.772;19.670;2022-10-17T07:34:08;24.05;;;14.55;;
22268;SDS011;11303;50.772;19.670;2022-10-17T07:36:10;23.13;;;15.02;;
22268;SDS011;11303;50.772;19.670;2022-10-17T07:38:15;18.30;;;14.82;;
22268;SDS011;11303;50.772;19.670;2022-10-17T07:40:17;19.75;;;14.57;;
22268;SDS011;11303;50.772;19.670;2022-10-17T07:42:18;22.20;;;15.60;;
22268;SDS011;11303;50.772;19.670;2022-10-17T07:44:20;20.38;;;14.45;;
22268;SDS011;11303;50.772;19.670;2022-10-17T07:46:21;22.75;;;15.70;;
22268;SDS011;11303;50.772;19.670;2022-10-17T07:48:23;20.98;;;13.50;;
22268;SDS011;11303;50.772;19.670;2022-10-17T07:50:25;22.60;;;14.52;;
22268;SDS011;11303;50.772;19.670;2022-10-17T07:52:26;21.65;;;14.68;;
22268;SDS011;11303;50.772;19.670;2022-10-17T07:54:28;20.77;;;14.50;;
22268;SDS011;11303;50.772;19.670;2022-10-17T07:56:30;21.98;;;13.93;;
22268;SDS011;11303;50.772;19.670;2022-10-17T07:58:32;18.27;;;14.48;;
22268;SDS011;11303;50.772;19.670;2022-10-17T08:00:38;19.88;;;12.45;;
22268;SDS011;11303;50.772;19.670;2022-10-17T08:02:40;21.95;;;13.63;;
22268;SDS011;11303;50.772;19.670;2022-10-17T08:04:41;20.90;;;13.48;;
22268;SDS011;11303;50.772;19.670;2022-10-17T08:06:43;22.67;;;13.55;;
22268;SDS011;11303;50.772;19.670;2022-10-17T08:08:44;22.27;;;13.57;;
22268;SDS011;11303;50.772;19.670;2022-10-17T08:10:46;22.98;;;14.23;;
22268;SDS011;11303;50.772;19.670;2022-10-17T08:12:47;20.20;;;13.52;;
22268;SDS011;11303;50.772;19.670;2022-10-17T08:14:49;19.27;;;13.32;;
22268;SDS011;11303;50.772;19.670;2022-10-17T08:16:52;17.92;;;12.35;;
22268;SDS011;11303;50.772;19.670;2022-10-17T08:18:54;20.98;;;12.55;;
22268;SDS011;11303;50.772;19.670;2022-10-17T08:20:59;17.92;;;11.38;;
22268;SDS011;11303;50.772;19.670;2022-10-17T08:23:01;18.35;;;11.23;;
22268;SDS011;11303;50.772;19.670;2022-10-17T08:25:03;16.73;;;11.25;;
22268;SDS011;11303;50.772;19.670;2022-10-17T08:27:05;19.40;;;11.48;;
22268;SDS011;11303;50.772;19.670;2022-10-17T08:29:15;18.10;;;12.05;;
22268;SDS011;11303;50.772;19.670;2022-10-17T08:31:17;16.40;;;10.80;;
22268;SDS011;11303;50.772;19.670;2022-10-17T08:33:20;18.80;;;12.48;;
22268;SDS011;11303;50.772;19.670;2022-10-17T08:35:21;13.77;;;9.38;;
22268;SDS011;11303;50.772;19.670;2022-10-17T08:37:23;13.00;;;9.65;;
22268;SDS011;11303;50.772;19.670;2022-10-17T08:39:25;15.60;;;9.10;;
22268;SDS011;11303;50.772;19.670;2022-10-17T08:43:54;18.38;;;9.10;;
22268;SDS011;11303;50.772;19.670;2022-10-17T08:46:05;11.63;;;8.15;;
22268;SDS011;11303;50.772;19.670;2022-10-17T08:48:10;13.90;;;8.77;;
22268;SDS011;11303;50.772;19.670;2022-10-17T08:50:17;13.07;;;7.47;;
22268;SDS011;11303;50.772;19.670;2022-10-17T08:52:35;12.32;;;7.18;;
22268;SDS011;11303;50.772;19.670;2022-10-17T08:54:45;13.18;;;7.93;;
22268;SDS011;11303;50.772;19.670;2022-10-17T08:56:48;10.05;;;7.50;;
22268;SDS011;11303;50.772;19.670;2022-10-17T08:58:51;11.52;;;7.38;;
22268;SDS011;11303;50.772;19.670;2022-10-17T09:03:32;10.30;;;7.47;;
22268;SDS011;11303;50.772;19.670;2022-10-17T09:05:45;10.18;;;6.65;;
22268;SDS011;11303;50.772;19.670;2022-10-17T09:10:14;9.77;;;7.18;;
22268;SDS011;11303;50.772;19.670;2022-10-17T09:17:29;10.75;;;7.80;;
22268;SDS011;11303;50.772;19.670;2022-10-17T09:19:37;10.60;;;7.45;;
22268;SDS011;11303;50.772;19.670;2022-10-17T09:21:53;15.60;;;7.45;;
22268;SDS011;11303;50.772;19.670;2022-10-17T09:24:00;10.80;;;7.78;;
22268;SDS011;11303;50.772;19.670;2022-10-17T09:26:15;9.43;;;7.28;;
22268;SDS011;11303;50.772;19.670;2022-10-17T09:28:18;10.35;;;7.60;;
22268;SDS011;11303;50.772;19.670;2022-10-17T09:30:38;11.90;;;7.65;;
22268;SDS011;11303;50.772;19.670;2022-10-17T09:32:46;8.65;;;7.05;;
22268;SDS011;11303;50.772;19.670;2022-10-17T09:34:48;13.02;;;7.82;;
22268;SDS011;11303;50.772;19.670;2022-10-17T09:36:50;11.93;;;7.35;;
22268;SDS011;11303;50.772;19.670;2022-10-17T09:38:53;13.10;;;7.53;;
22268;SDS011;11303;50.772;19.670;2022-10-17T09:40:58;15.98;;;8.20;;
22268;SDS011;11303;50.772;19.670;2022-10-17T09:43:02;9.85;;;7.65;;
22268;SDS011;11303;50.772;19.670;2022-10-17T09:47:17;12.93;;;7.50;;
22268;SDS011;11303;50.772;19.670;2022-10-17T09:49:26;8.93;;;7.90;;
22268;SDS011;11303;50.772;19.670;2022-10-17T09:51:32;12.38;;;7.20;;
22268;SDS011;11303;50.772;19.670;2022-10-17T09:53:38;12.70;;;7.95;;
22268;SDS011;11303;50.772;19.670;2022-10-17T09:55:44;13.95;;;8.18;;
22268;SDS011;11303;50.772;19.670;2022-10-17T09:57:53;10.25;;;7.68;;
22268;SDS011;11303;50.772;19.670;2022-10-17T09:59:57;11.45;;;7.93;;
22268;SDS011;11303;50.772;19.670;2022-10-17T10:04:13;8.30;;;7.40;;
22268;SDS011;11303;50.772;19.670;2022-10-17T10:06:17;12.40;;;7.80;;
22268;SDS011;11303;50.772;19.670;2022-10-17T10:08:20;9.30;;;7.68;;
22268;SDS011;11303;50.772;19.670;2022-10-17T10:10:24;12.02;;;7.60;;
22268;SDS011;11303;50.772;19.670;2022-10-17T10:12:36;10.30;;;7.10;;
22268;SDS011;11303;50.772;19.670;2022-10-17T10:14:39;10.93;;;7.88;;
22268;SDS011;11303;50.772;19.670;2022-10-17T10:16:42;12.40;;;7.97;;
22268;SDS011;11303;50.772;19.670;2022-10-17T10:18:45;10.95;;;8.25;;
22268;SDS011;11303;50.772;19.670;2022-10-17T10:21:01;15.95;;;8.32;;
22268;SDS011;11303;50.772;19.670;2022-10-17T10:23:10;11.10;;;7.35;;
22268;SDS011;11303;50.772;19.670;2022-10-17T10:25:15;10.55;;;7.18;;
22268;SDS011;11303;50.772;19.670;2022-10-17T10:27:17;13.00;;;8.13;;
22268;SDS011;11303;50.772;19.670;2022-10-17T10:29:33;12.20;;;7.20;;
22268;SDS011;11303;50.772;19.670;2022-10-17T10:31:37;10.73;;;7.57;;
22268;SDS011;11303;50.772;19.670;2022-10-17T10:33:40;10.18;;;7.20;;
22268;SDS011;11303;50.772;19.670;2022-10-17T10:35:54;9.75;;;6.97;;
22268;SDS011;11303;50.772;19.670;2022-10-17T10:37:59;10.60;;;7.53;;
22268;SDS011;11303;50.772;19.670;2022-10-17T10:40:14;7.85;;;6.80;;
22268;SDS011;11303;50.772;19.670;2022-10-17T10:42:26;12.07;;;7.10;;
22268;SDS011;11303;50.772;19.670;2022-10-17T10:44:31;9.27;;;6.82;;
22268;SDS011;11303;50.772;19.670;2022-10-17T10:46:34;11.77;;;7.03;;
22268;SDS011;11303;50.772;19.670;2022-10-17T10:48:35;11.40;;;7.70;;
22268;SDS011;11303;50.772;19.670;2022-10-17T10:50:51;17.35;;;7.35;;
22268;SDS011;11303;50.772;19.670;2022-10-17T10:53:06;9.02;;;7.15;;
22268;SDS011;11303;50.772;19.670;2022-10-17T10:55:46;9.63;;;8.07;;
22268;SDS011;11303;50.772;19.670;2022-10-17T10:57:57;10.45;;;7.05;;
22268;SDS011;11303;50.772;19.670;2022-10-17T11:00:11;9.13;;;7.13;;
22268;SDS011;11303;50.772;19.670;2022-10-17T11:02:21;9.25;;;7.03;;
22268;SDS011;11303;50.772;19.670;2022-10-17T11:04:32;11.57;;;7.82;;
22268;SDS011;11303;50.772;19.670;2022-10-17T11:06:42;8.23;;;7.13;;
22268;SDS011;11303;50.772;19.670;2022-10-17T11:08:54;12.70;;;7.30;;
22268;SDS011;11303;50.772;19.670;2022-10-17T11:11:34;9.13;;;7.32;;
22268;SDS011;11303;50.772;19.670;2022-10-17T11:13:42;11.00;;;7.32;;
22268;SDS011;11303;50.772;19.670;2022-10-17T11:15:56;10.43;;;7.25;;
22268;SDS011;11303;50.772;19.670;2022-10-17T11:18:03;12.50;;;7.35;;
22268;SDS011;11303;50.772;19.670;2022-10-17T11:22:21;10.73;;;7.20;;
22268;SDS011;11303;50.772;19.670;2022-10-17T11:24:43;11.43;;;7.40;;
22268;SDS011;11303;50.772;19.670;2022-10-17T11:27:00;10.65;;;7.07;;
22268;SDS011;11303;50.772;19.670;2022-10-17T11:29:04;10.32;;;7.40;;
22268;SDS011;11303;50.772;19.670;2022-10-17T11:31:11;10.70;;;7.55;;
22268;SDS011;11303;50.772;19.670;2022-10-17T11:33:23;15.32;;;7.55;;
22268;SDS011;11303;50.772;19.670;2022-10-17T11:35:33;10.27;;;7.75;;
22268;SDS011;11303;50.772;19.670;2022-10-17T11:37:38;10.55;;;8.02;;
22268;SDS011;11303;50.772;19.670;2022-10-17T11:39:50;13.38;;;7.95;;
22268;SDS011;11303;50.772;19.670;2022-10-17T11:42:05;10.15;;;7.95;;
22268;SDS011;11303;50.772;19.670;2022-10-17T11:44:28;12.70;;;8.38;;
22268;SDS011;11303;50.772;19.670;2022-10-17T11:46:33;12.40;;;8.02;;
22268;SDS011;11303;50.772;19.670;2022-10-17T11:48:38;10.88;;;7.78;;
22268;SDS011;11303;50.772;19.670;2022-10-17T11:50:44;13.77;;;7.85;;
22268;SDS011;11303;50.772;19.670;2022-10-17T11:53:10;12.20;;;8.02;;
22268;SDS011;11303;50.772;19.670;2022-10-17T12:01:51;10.75;;;7.45;;
22268;SDS011;11303;50.772;19.670;2022-10-17T12:04:00;10.35;;;8.40;;
22268;SDS011;11303;50.772;19.670;2022-10-17T12:06:16;16.27;;;8.40;;
22268;SDS011;11303;50.772;19.670;2022-10-17T12:08:32;14.68;;;8.52;;
22268;SDS011;11303;50.772;19.670;2022-10-17T12:15:33;15.40;;;9.20;;
22268;SDS011;11303;50.772;19.670;2022-10-17T12:17:35;17.40;;;8.18;;
22268;SDS011;11303;50.772;19.670;2022-10-17T12:19:41;15.35;;;7.88;;
22268;SDS011;11303;50.772;19.670;2022-10-17T12:26:36;12.13;;;7.72;;
22268;SDS011;11303;50.772;19.670;2022-10-17T12:28:44;14.93;;;7.97;;
22268;SDS011;11303;50.772;19.670;2022-10-17T12:35:13;20.08;;;8.98;;
22268;SDS011;11303;50.772;19.670;2022-10-17T12:39:50;16.95;;;8.52;;
22268;SDS011;11303;50.772;19.670;2022-10-17T12:41:52;12.60;;;8.00;;
22268;SDS011;11303;50.772;19.670;2022-10-17T12:43:54;14.73;;;8.38;;
22268;SDS011;11303;50.772;19.670;2022-10-17T12:46:02;12.13;;;7.82;;
22268;SDS011;11303;50.772;19.670;2022-10-17T12:48:07;11.70;;;8.80;;
22268;SDS011;11303;50.772;19.670;2022-10-17T12:52:54;11.35;;;8.07;;
22268;SDS011;11303;50.772;19.670;2022-10-17T12:59:26;14.07;;;8.32;;
22268;SDS011;11303;50.772;19.670;2022-10-17T13:01:30;13.77;;;7.90;;
22268;SDS011;11303;50.772;19.670;2022-10-17T13:03:34;10.90;;;7.93;;
22268;SDS011;11303;50.772;19.670;2022-10-17T13:05:46;11.50;;;7.50;;
22268;SDS011;11303;50.772;19.670;2022-10-17T13:07:50;9.57;;;7.28;;
22268;SDS011;11303;50.772;19.670;2022-10-17T13:09:53;16.77;;;8.18;;
22268;SDS011;11303;50.772;19.670;2022-10-17T13:11:56;11.43;;;7.45;;
22268;SDS011;11303;50.772;19.670;2022-10-17T13:14:00;16.63;;;8.75;;
22268;SDS011;11303;50.772;19.670;2022-10-17T13:16:25;12.85;;;7.68;;
22268;SDS011;11303;50.772;19.670;2022-10-17T13:18:28;11.93;;;7.40;;
22268;SDS011;11303;50.772;19.670;2022-10-17T13:20:30;10.85;;;7.68;;
22268;SDS011;11303;50.772;19.670;2022-10-17T13:22:32;12.13;;;7.63;;
22268;SDS011;11303;50.772;19.670;2022-10-17T13:26:36;10.48;;;7.18;;
22268;SDS011;11303;50.772;19.670;2022-10-17T13:28:38;11.65;;;7.88;;
22268;SDS011;11303;50.772;19.670;2022-10-17T13:30:44;15.52;;;7.75;;